PWSweather.com
Personal Weather Stations
Station Observations
ESTGRALPAZ
Santa Fe, Santa FeAR 3000

Santa FeSanta FeAR 3000

Lat: -31.6280555556, Lon: -60.6908333333

Elevation: 69

Station Type: WH1081

http://www.estaciongralpaz.com.ar

Latest ConditionsUpdated 3:12:00 AM GMT-03:57 Thursday, Oct 18, 2018
Currently Today's Max Today's Min Today's Average
Temperature 70.3°F21.3°C 74.5°F23.6°C 70.3°F21.3°C 72.7°F22.6°C
Dew Point 65.0°F18.3°C 66.1°F18.9°C 64.9°F18.3°C 65.5°F18.6°C
Winds 2.2 mph E3.5 kmh E 7.6 mph -12.2 kmh - - 2.3 mph 3.7 kmh
Wind Gusts 5.4 mph8.7 kmh 13.0 mph20.9 kmh - -
Humidity 83% 83% 75% 78%
Pressure 29.64 in1003.7 mb 29.66 in1004.4 mb 29.63 in1003.4 mb -
Hour Temp Dew Point Humidity Winds Wind Gusts Pressure Precip Precip Rate Daily Precip Total
03:12 AM 70.3°F21.3°C 65.0°F18.3°C 83% 2.2 mph E3.5 kmh E 5.4 mph8.7 kmh 29.64 in1003.7 mb 0.00 in0.0 mm 0.00 in0.0 mm 0.00 in0.0 mm
03:11 AM 70.3°F21.3°C 65.0°F18.3°C 83% 4.5 mph E7.2 kmh E 5.4 mph8.7 kmh 29.64 in1003.7 mb 0.00 in0.0 mm 0.00 in0.0 mm 0.00 in0.0 mm
03:10 AM 70.3°F21.3°C 65.0°F18.3°C 83% 2.2 mph E3.5 kmh E 5.4 mph8.7 kmh 29.64 in1003.7 mb 0.00 in0.0 mm 0.00 in0.0 mm 0.00 in0.0 mm
03:09 AM 70.5°F21.4°C 65.1°F18.4°C 83% 1.6 mph ESE2.6 kmh ESE 5.4 mph8.7 kmh 29.63 in1003.4 mb 0.00 in0.0 mm 0.00 in0.0 mm 0.00 in0.0 mm
03:08 AM 70.5°F21.4°C 65.1°F18.4°C 83% 0.7 mph ESE1.1 kmh ESE 6.0 mph9.7 kmh 29.64 in1003.7 mb 0.00 in0.0 mm 0.00 in0.0 mm 0.00 in0.0 mm
03:07 AM 70.5°F21.4°C 65.1°F18.4°C 83% 1.6 mph ESE2.6 kmh ESE 6.0 mph9.7 kmh 29.64 in1003.7 mb 0.00 in0.0 mm 0.00 in0.0 mm 0.00 in0.0 mm
03:06 AM 70.5°F21.4°C 65.1°F18.4°C 83% 2.2 mph SE3.5 kmh SE 6.0 mph9.7 kmh 29.64 in1003.7 mb 0.00 in0.0 mm 0.00 in0.0 mm 0.00 in0.0 mm
03:05 AM 70.5°F21.4°C 65.1°F18.4°C 83% 1.6 mph ESE2.6 kmh ESE 6.0 mph9.7 kmh 29.65 in1004.1 mb 0.00 in0.0 mm 0.00 in0.0 mm 0.00 in0.0 mm
03:04 AM 70.5°F21.4°C 65.1°F18.4°C 83% 2.2 mph ESE3.5 kmh ESE 6.0 mph9.7 kmh 29.65 in1004.1 mb 0.00 in0.0 mm 0.00 in0.0 mm 0.00 in0.0 mm
03:03 AM 70.5°F21.4°C 65.1°F18.4°C 83% 0.7 mph ESE1.1 kmh ESE 6.0 mph9.7 kmh 29.64 in1003.7 mb 0.00 in0.0 mm 0.00 in0.0 mm 0.00 in0.0 mm
03:02 AM 70.7°F21.5°C 65.3°F18.5°C 83% 2.2 mph ESE3.5 kmh ESE 6.0 mph9.7 kmh 29.65 in1004.1 mb 0.00 in0.0 mm 0.00 in0.0 mm 0.00 in0.0 mm
03:01 AM 70.7°F21.5°C 65.3°F18.5°C 83% 3.1 mph SE5.0 kmh SE 6.0 mph9.7 kmh 29.65 in1004.1 mb 0.00 in0.0 mm 0.00 in0.0 mm 0.00 in0.0 mm
03:00 AM 70.7°F21.5°C 65.3°F18.5°C 83% 3.1 mph SE5.0 kmh SE 6.0 mph9.7 kmh 29.65 in1004.1 mb 0.00 in0.0 mm 0.00 in0.0 mm 0.00 in0.0 mm
02:59 AM 70.7°F21.5°C 65.3°F18.5°C 83% 3.1 mph SE5.0 kmh SE 6.0 mph9.7 kmh 29.65 in1004.1 mb 0.00 in0.0 mm 0.00 in0.0 mm 0.00 in0.0 mm
02:58 AM 70.7°F21.5°C 65.0°F18.3°C 82% 3.1 mph SE5.0 kmh SE 4.5 mph7.2 kmh 29.65 in1004.1 mb 0.00 in0.0 mm 0.00 in0.0 mm 0.00 in0.0 mm
02:57 AM 70.7°F21.5°C 65.0°F18.3°C 82% 1.6 mph SE2.6 kmh SE 6.0 mph9.7 kmh 29.65 in1004.1 mb 0.00 in0.0 mm 0.00 in0.0 mm 0.00 in0.0 mm
02:56 AM 70.7°F21.5°C 65.0°F18.3°C 82% 2.2 mph SE3.5 kmh SE 6.0 mph9.7 kmh 29.65 in1004.1 mb 0.00 in0.0 mm 0.00 in0.0 mm 0.00 in0.0 mm
02:55 AM 70.7°F21.5°C 65.0°F18.3°C 82% 2.2 mph SE3.5 kmh SE 6.0 mph9.7 kmh 29.65 in1004.1 mb 0.00 in0.0 mm 0.00 in0.0 mm 0.00 in0.0 mm
02:54 AM 71.1°F21.7°C 65.3°F18.5°C 82% 1.6 mph SE2.6 kmh SE 6.0 mph9.7 kmh 29.65 in1004.1 mb 0.00 in0.0 mm 0.00 in0.0 mm 0.00 in0.0 mm
02:53 AM 71.1°F21.7°C 65.3°F18.5°C 82% 1.6 mph SE2.6 kmh SE 6.0 mph9.7 kmh 29.64 in1003.7 mb 0.00 in0.0 mm 0.00 in0.0 mm 0.00 in0.0 mm
02:52 AM 71.1°F21.7°C 65.3°F18.5°C 82% 2.2 mph SE3.5 kmh SE 6.0 mph9.7 kmh 29.64 in1003.7 mb 0.00 in0.0 mm 0.00 in0.0 mm 0.00 in0.0 mm
02:51 AM 71.1°F21.7°C 65.3°F18.5°C 82% 3.1 mph SE5.0 kmh SE 6.0 mph9.7 kmh 29.65 in1004.1 mb 0.00 in0.0 mm 0.00 in0.0 mm 0.00 in0.0 mm
02:50 AM 71.1°F21.7°C 65.3°F18.5°C 82% 1.6 mph SE2.6 kmh SE 6.0 mph9.7 kmh 29.65 in1004.1 mb 0.00 in0.0 mm 0.00 in0.0 mm 0.00 in0.0 mm
02:49 AM 71.1°F21.7°C 65.3°F18.5°C 82% 1.6 mph SE2.6 kmh SE 6.0 mph9.7 kmh 29.65 in1004.1 mb 0.00 in0.0 mm 0.00 in0.0 mm 0.00 in0.0 mm
02:48 AM 71.1°F21.7°C 65.3°F18.5°C 82% 0.7 mph SE1.1 kmh SE 6.0 mph9.7 kmh 29.65 in1004.1 mb 0.00 in0.0 mm 0.00 in0.0 mm 0.00 in0.0 mm
02:47 AM 71.1°F21.7°C 65.3°F18.5°C 82% 2.2 mph SE3.5 kmh SE 6.0 mph9.7 kmh 29.65 in1004.1 mb 0.00 in0.0 mm 0.00 in0.0 mm 0.00 in0.0 mm
02:46 AM 71.2°F21.8°C 65.5°F18.6°C 82% 2.2 mph SE3.5 kmh SE 4.5 mph7.2 kmh 29.65 in1004.1 mb 0.00 in0.0 mm 0.00 in0.0 mm 0.00 in0.0 mm
02:45 AM 71.2°F21.8°C 65.5°F18.6°C 82% 2.2 mph SE3.5 kmh SE 4.5 mph7.2 kmh 29.65 in1004.1 mb 0.00 in0.0 mm 0.00 in0.0 mm 0.00 in0.0 mm
02:44 AM 71.2°F21.8°C 65.5°F18.6°C 82% 2.2 mph SE3.5 kmh SE 4.5 mph7.2 kmh 29.65 in1004.1 mb 0.00 in0.0 mm 0.00 in0.0 mm 0.00 in0.0 mm
02:43 AM 71.4°F21.9°C 65.7°F18.7°C 82% 2.2 mph SE3.5 kmh SE 4.5 mph7.2 kmh 29.65 in1004.1 mb 0.00 in0.0 mm 0.00 in0.0 mm 0.00 in0.0 mm
02:42 AM 71.4°F21.9°C 65.7°F18.7°C 82% 3.1 mph SE5.0 kmh SE 4.5 mph7.2 kmh 29.65 in1004.1 mb 0.00 in0.0 mm 0.00 in0.0 mm 0.00 in0.0 mm
02:41 AM 71.4°F21.9°C 65.7°F18.7°C 82% 3.1 mph SE5.0 kmh SE 4.5 mph7.2 kmh 29.65 in1004.1 mb 0.00 in0.0 mm 0.00 in0.0 mm 0.00 in0.0 mm
02:40 AM 71.4°F21.9°C 65.3°F18.5°C 81% 2.2 mph SE3.5 kmh SE 4.5 mph7.2 kmh 29.65 in1004.1 mb 0.00 in0.0 mm 0.00 in0.0 mm 0.00 in0.0 mm
02:39 AM 71.4°F21.9°C 65.3°F18.5°C 81% 3.1 mph SE5.0 kmh SE 4.5 mph7.2 kmh 29.65 in1004.1 mb 0.00 in0.0 mm 0.00 in0.0 mm 0.00 in0.0 mm
02:38 AM 71.6°F22.0°C 65.1°F18.4°C 80% 2.2 mph SE3.5 kmh SE 4.5 mph7.2 kmh 29.65 in1004.1 mb 0.00 in0.0 mm 0.00 in0.0 mm 0.00 in0.0 mm
02:37 AM 71.6°F22.0°C 65.1°F18.4°C 80% 0.7 mph SE1.1 kmh SE 3.8 mph6.1 kmh 29.65 in1004.1 mb 0.00 in0.0 mm 0.00 in0.0 mm 0.00 in0.0 mm
02:36 AM 71.6°F22.0°C 65.1°F18.4°C 80% 0.7 mph SE1.1 kmh SE 3.8 mph6.1 kmh 29.65 in1004.1 mb 0.00 in0.0 mm 0.00 in0.0 mm 0.00 in0.0 mm
02:35 AM 71.6°F22.0°C 65.1°F18.4°C 80% 0.7 mph ESE1.1 kmh ESE 3.8 mph6.1 kmh 29.65 in1004.1 mb 0.00 in0.0 mm 0.00 in0.0 mm 0.00 in0.0 mm
02:34 AM 71.6°F22.0°C 65.1°F18.4°C 80% 0.7 mph ESE1.1 kmh ESE 3.8 mph6.1 kmh 29.65 in1004.1 mb 0.00 in0.0 mm 0.00 in0.0 mm 0.00 in0.0 mm
02:33 AM 71.6°F22.0°C 65.1°F18.4°C 80% 2.2 mph ESE3.5 kmh ESE 3.8 mph6.1 kmh 29.65 in1004.1 mb 0.00 in0.0 mm 0.00 in0.0 mm 0.00 in0.0 mm
02:32 AM 71.6°F22.0°C 65.1°F18.4°C 80% 1.6 mph ESE2.6 kmh ESE 3.8 mph6.1 kmh 29.65 in1004.1 mb 0.00 in0.0 mm 0.00 in0.0 mm 0.00 in0.0 mm
02:31 AM 71.8°F22.1°C 65.3°F18.5°C 80% 2.2 mph E3.5 kmh E 3.8 mph6.1 kmh 29.65 in1004.1 mb 0.00 in0.0 mm 0.00 in0.0 mm 0.00 in0.0 mm
02:30 AM 71.8°F22.1°C 65.3°F18.5°C 80% 1.6 mph E2.6 kmh E 3.8 mph6.1 kmh 29.65 in1004.1 mb 0.00 in0.0 mm 0.00 in0.0 mm 0.00 in0.0 mm
02:29 AM 71.8°F22.1°C 65.3°F18.5°C 80% 2.2 mph E3.5 kmh E 3.8 mph6.1 kmh 29.65 in1004.1 mb 0.00 in0.0 mm 0.00 in0.0 mm 0.00 in0.0 mm
02:28 AM 71.8°F22.1°C 65.3°F18.5°C 80% 2.2 mph E3.5 kmh E 3.8 mph6.1 kmh 29.65 in1004.1 mb 0.00 in0.0 mm 0.00 in0.0 mm 0.00 in0.0 mm
02:27 AM 71.8°F22.1°C 65.3°F18.5°C 80% 3.1 mph ESE5.0 kmh ESE 3.8 mph6.1 kmh 29.65 in1004.1 mb 0.00 in0.0 mm 0.00 in0.0 mm 0.00 in0.0 mm
02:26 AM 71.8°F22.1°C 65.3°F18.5°C 80% 1.6 mph ESE2.6 kmh ESE 3.1 mph5.0 kmh 29.65 in1004.1 mb 0.00 in0.0 mm 0.00 in0.0 mm 0.00 in0.0 mm
02:25 AM 71.8°F22.1°C 65.3°F18.5°C 80% Calm Calm 3.1 mph5.0 kmh 29.65 in1004.1 mb 0.00 in0.0 mm 0.00 in0.0 mm 0.00 in0.0 mm
02:24 AM 71.8°F22.1°C 65.3°F18.5°C 80% 0.7 mph SE1.1 kmh SE 3.1 mph5.0 kmh 29.65 in1004.1 mb 0.00 in0.0 mm 0.00 in0.0 mm 0.00 in0.0 mm
02:23 AM 71.8°F22.1°C 65.3°F18.5°C 80% 1.6 mph SE2.6 kmh SE 3.1 mph5.0 kmh 29.65 in1004.1 mb 0.00 in0.0 mm 0.00 in0.0 mm 0.00 in0.0 mm
02:22 AM 72.0°F22.2°C 65.5°F18.6°C 80% 1.6 mph ESE2.6 kmh ESE 3.1 mph5.0 kmh 29.65 in1004.1 mb 0.00 in0.0 mm 0.00 in0.0 mm 0.00 in0.0 mm
02:21 AM 72.0°F22.2°C 65.5°F18.6°C 80% Calm Calm 3.1 mph5.0 kmh 29.65 in1004.1 mb 0.00 in0.0 mm 0.00 in0.0 mm 0.00 in0.0 mm
02:20 AM 72.0°F22.2°C 65.5°F18.6°C 80% 0.7 mph SE1.1 kmh SE 3.1 mph5.0 kmh 29.65 in1004.1 mb 0.00 in0.0 mm 0.00 in0.0 mm 0.00 in0.0 mm
02:19 AM 72.0°F22.2°C 65.5°F18.6°C 80% 1.6 mph SE2.6 kmh SE 3.1 mph5.0 kmh 29.65 in1004.1 mb 0.00 in0.0 mm 0.00 in0.0 mm 0.00 in0.0 mm
02:18 AM 72.1°F22.3°C 65.7°F18.7°C 80% 0.7 mph ESE1.1 kmh ESE 3.1 mph5.0 kmh 29.65 in1004.1 mb 0.00 in0.0 mm 0.00 in0.0 mm 0.00 in0.0 mm
02:17 AM 72.1°F22.3°C 65.7°F18.7°C 80% 1.6 mph ESE2.6 kmh ESE 3.1 mph5.0 kmh 29.65 in1004.1 mb 0.00 in0.0 mm 0.00 in0.0 mm 0.00 in0.0 mm
02:16 AM 72.1°F22.3°C 65.7°F18.7°C 80% 2.2 mph E3.5 kmh E 3.1 mph5.0 kmh 29.66 in1004.4 mb 0.00 in0.0 mm 0.00 in0.0 mm 0.00 in0.0 mm
02:15 AM 72.1°F22.3°C 65.7°F18.7°C 80% 0.7 mph E1.1 kmh E 3.1 mph5.0 kmh 29.65 in1004.1 mb 0.00 in0.0 mm 0.00 in0.0 mm 0.00 in0.0 mm
02:14 AM 72.1°F22.3°C 65.3°F18.5°C 79% 0.7 mph E1.1 kmh E 3.1 mph5.0 kmh 29.65 in1004.1 mb 0.00 in0.0 mm 0.00 in0.0 mm 0.00 in0.0 mm
02:13 AM 72.1°F22.3°C 65.3°F18.5°C 79% 0.7 mph E1.1 kmh E 3.1 mph5.0 kmh 29.65 in1004.1 mb 0.00 in0.0 mm 0.00 in0.0 mm 0.00 in0.0 mm
02:12 AM 72.1°F22.3°C 65.3°F18.5°C 79% 0.7 mph ENE1.1 kmh ENE 3.1 mph5.0 kmh 29.65 in1004.1 mb 0.00 in0.0 mm 0.00 in0.0 mm 0.00 in0.0 mm
02:11 AM 72.1°F22.3°C 65.3°F18.5°C 79% Calm Calm 3.1 mph5.0 kmh 29.65 in1004.1 mb 0.00 in0.0 mm 0.00 in0.0 mm 0.00 in0.0 mm
02:10 AM 72.1°F22.3°C 65.3°F18.5°C 79% Calm Calm 3.1 mph5.0 kmh 29.65 in1004.1 mb 0.00 in0.0 mm 0.00 in0.0 mm 0.00 in0.0 mm
02:09 AM 72.1°F22.3°C 65.3°F18.5°C 79% 0.7 mph NE1.1 kmh NE 3.1 mph5.0 kmh 29.65 in1004.1 mb 0.00 in0.0 mm 0.00 in0.0 mm 0.00 in0.0 mm
02:08 AM 72.3°F22.4°C 65.5°F18.6°C 79% 0.7 mph NE1.1 kmh NE 3.1 mph5.0 kmh 29.65 in1004.1 mb 0.00 in0.0 mm 0.00 in0.0 mm 0.00 in0.0 mm
02:07 AM 72.1°F22.3°C 65.3°F18.5°C 79% 1.6 mph ENE2.6 kmh ENE 3.1 mph5.0 kmh 29.66 in1004.4 mb 0.00 in0.0 mm 0.00 in0.0 mm 0.00 in0.0 mm
02:06 AM 72.3°F22.4°C 65.5°F18.6°C 79% 0.7 mph E1.1 kmh E 3.1 mph5.0 kmh 29.65 in1004.1 mb 0.00 in0.0 mm 0.00 in0.0 mm 0.00 in0.0 mm
02:05 AM 72.3°F22.4°C 65.5°F18.6°C 79% Calm Calm 3.1 mph5.0 kmh 29.65 in1004.1 mb 0.00 in0.0 mm 0.00 in0.0 mm 0.00 in0.0 mm
02:04 AM 72.3°F22.4°C 65.5°F18.6°C 79% Calm Calm 3.1 mph5.0 kmh 29.65 in1004.1 mb 0.00 in0.0 mm 0.00 in0.0 mm 0.00 in0.0 mm
02:03 AM 72.3°F22.4°C 65.5°F18.6°C 79% 0.7 mph E1.1 kmh E 3.1 mph5.0 kmh 29.65 in1004.1 mb 0.00 in0.0 mm 0.00 in0.0 mm 0.00 in0.0 mm
02:02 AM 72.3°F22.4°C 65.5°F18.6°C 79% Calm Calm 3.1 mph5.0 kmh 29.66 in1004.4 mb 0.00 in0.0 mm 0.00 in0.0 mm 0.00 in0.0 mm
02:01 AM 72.3°F22.4°C 65.5°F18.6°C 79% 1.6 mph E2.6 kmh E 3.1 mph5.0 kmh 29.66 in1004.4 mb 0.00 in0.0 mm 0.00 in0.0 mm 0.00 in0.0 mm
02:00 AM 72.3°F22.4°C 65.5°F18.6°C 79% 0.7 mph ESE1.1 kmh ESE 3.1 mph5.0 kmh 29.66 in1004.4 mb 0.00 in0.0 mm 0.00 in0.0 mm 0.00 in0.0 mm
01:59 AM 72.3°F22.4°C 65.5°F18.6°C 79% 0.7 mph ESE1.1 kmh ESE 3.1 mph5.0 kmh 29.66 in1004.4 mb 0.00 in0.0 mm 0.00 in0.0 mm 0.00 in0.0 mm
01:58 AM 72.3°F22.4°C 65.5°F18.6°C 79% 0.7 mph ESE1.1 kmh ESE 3.1 mph5.0 kmh 29.66 in1004.4 mb 0.00 in0.0 mm 0.00 in0.0 mm 0.00 in0.0 mm
01:57 AM 72.3°F22.4°C 65.1°F18.4°C 78% 1.6 mph ESE2.6 kmh ESE 3.1 mph5.0 kmh 29.66 in1004.4 mb 0.00 in0.0 mm 0.00 in0.0 mm 0.00 in0.0 mm
01:56 AM 72.3°F22.4°C 65.1°F18.4°C 78% 1.6 mph ESE2.6 kmh ESE 3.1 mph5.0 kmh 29.66 in1004.4 mb 0.00 in0.0 mm 0.00 in0.0 mm 0.00 in0.0 mm
01:55 AM 72.3°F22.4°C 65.1°F18.4°C 78% 1.6 mph ESE2.6 kmh ESE 3.1 mph5.0 kmh 29.65 in1004.1 mb 0.00 in0.0 mm 0.00 in0.0 mm 0.00 in0.0 mm
01:54 AM 72.5°F22.5°C 65.3°F18.5°C 78% 1.6 mph E2.6 kmh E 3.1 mph5.0 kmh 29.66 in1004.4 mb 0.00 in0.0 mm 0.00 in0.0 mm 0.00 in0.0 mm
01:53 AM 72.5°F22.5°C 65.3°F18.5°C 78% 1.6 mph E2.6 kmh E 3.1 mph5.0 kmh 29.65 in1004.1 mb 0.00 in0.0 mm 0.00 in0.0 mm 0.00 in0.0 mm
01:52 AM 72.5°F22.5°C 65.3°F18.5°C 78% 1.6 mph E2.6 kmh E 3.1 mph5.0 kmh 29.66 in1004.4 mb 0.00 in0.0 mm 0.00 in0.0 mm 0.00 in0.0 mm
01:51 AM 72.5°F22.5°C 64.9°F18.3°C 77% 2.2 mph ENE3.5 kmh ENE 3.8 mph6.1 kmh 29.66 in1004.4 mb 0.00 in0.0 mm 0.00 in0.0 mm 0.00 in0.0 mm
01:50 AM 72.7°F22.6°C 65.1°F18.4°C 77% 0.7 mph ENE1.1 kmh ENE 3.8 mph6.1 kmh 29.66 in1004.4 mb 0.00 in0.0 mm 0.00 in0.0 mm 0.00 in0.0 mm
01:49 AM 72.7°F22.6°C 65.1°F18.4°C 77% 0.7 mph NE1.1 kmh NE 3.8 mph6.1 kmh 29.66 in1004.4 mb 0.00 in0.0 mm 0.00 in0.0 mm 0.00 in0.0 mm
01:48 AM 72.7°F22.6°C 65.1°F18.4°C 77% Calm Calm 3.8 mph6.1 kmh 29.65 in1004.1 mb 0.00 in0.0 mm 0.00 in0.0 mm 0.00 in0.0 mm
01:47 AM 72.7°F22.6°C 65.1°F18.4°C 77% 0.7 mph NE1.1 kmh NE 3.8 mph6.1 kmh 29.65 in1004.1 mb 0.00 in0.0 mm 0.00 in0.0 mm 0.00 in0.0 mm
01:46 AM 72.7°F22.6°C 65.1°F18.4°C 77% Calm Calm 3.8 mph6.1 kmh 29.66 in1004.4 mb 0.00 in0.0 mm 0.00 in0.0 mm 0.00 in0.0 mm
01:45 AM 72.7°F22.6°C 65.1°F18.4°C 77% 1.6 mph NE2.6 kmh NE 3.8 mph6.1 kmh 29.66 in1004.4 mb 0.00 in0.0 mm 0.00 in0.0 mm 0.00 in0.0 mm
01:44 AM 72.7°F22.6°C 65.1°F18.4°C 77% 1.6 mph NNE2.6 kmh NNE 3.8 mph6.1 kmh 29.65 in1004.1 mb 0.00 in0.0 mm 0.00 in0.0 mm 0.00 in0.0 mm
01:43 AM 72.7°F22.6°C 65.1°F18.4°C 77% 1.6 mph NE2.6 kmh NE 3.8 mph6.1 kmh 29.65 in1004.1 mb 0.00 in0.0 mm 0.00 in0.0 mm 0.00 in0.0 mm
01:42 AM 72.7°F22.6°C 65.1°F18.4°C 77% 1.6 mph NE2.6 kmh NE 3.8 mph6.1 kmh 29.65 in1004.1 mb 0.00 in0.0 mm 0.00 in0.0 mm 0.00 in0.0 mm
01:41 AM 72.7°F22.6°C 65.1°F18.4°C 77% 2.2 mph NNE3.5 kmh NNE 3.8 mph6.1 kmh 29.65 in1004.1 mb 0.00 in0.0 mm 0.00 in0.0 mm 0.00 in0.0 mm
01:40 AM 72.7°F22.6°C 65.1°F18.4°C 77% 3.1 mph NE5.0 kmh NE 3.8 mph6.1 kmh 29.65 in1004.1 mb 0.00 in0.0 mm 0.00 in0.0 mm 0.00 in0.0 mm
01:39 AM 72.7°F22.6°C 65.1°F18.4°C 77% 0.7 mph NNE1.1 kmh NNE 3.8 mph6.1 kmh 29.65 in1004.1 mb 0.00 in0.0 mm 0.00 in0.0 mm 0.00 in0.0 mm
01:38 AM 72.9°F22.7°C 65.3°F18.5°C 77% 1.6 mph NNE2.6 kmh NNE 3.8 mph6.1 kmh 29.66 in1004.4 mb 0.00 in0.0 mm 0.00 in0.0 mm 0.00 in0.0 mm
01:37 AM 72.9°F22.7°C 65.3°F18.5°C 77% 0.7 mph NE1.1 kmh NE 3.8 mph6.1 kmh 29.66 in1004.4 mb 0.00 in0.0 mm 0.00 in0.0 mm 0.00 in0.0 mm
01:36 AM 72.9°F22.7°C 65.3°F18.5°C 77% 3.1 mph NNE5.0 kmh NNE 3.8 mph6.1 kmh 29.66 in1004.4 mb 0.00 in0.0 mm 0.00 in0.0 mm 0.00 in0.0 mm
01:35 AM 72.9°F22.7°C 65.3°F18.5°C 77% 1.6 mph NNE2.6 kmh NNE 4.5 mph7.2 kmh 29.66 in1004.4 mb 0.00 in0.0 mm 0.00 in0.0 mm 0.00 in0.0 mm
01:34 AM 72.9°F22.7°C 65.3°F18.5°C 77% 1.6 mph NNE2.6 kmh NNE 4.5 mph7.2 kmh 29.66 in1004.4 mb 0.00 in0.0 mm 0.00 in0.0 mm 0.00 in0.0 mm
01:33 AM 72.9°F22.7°C 65.3°F18.5°C 77% 0.7 mph NNE1.1 kmh NNE 4.5 mph7.2 kmh 29.66 in1004.4 mb 0.00 in0.0 mm 0.00 in0.0 mm 0.00 in0.0 mm
01:32 AM 72.9°F22.7°C 65.3°F18.5°C 77% 2.2 mph NNE3.5 kmh NNE 5.4 mph8.7 kmh 29.66 in1004.4 mb 0.00 in0.0 mm 0.00 in0.0 mm 0.00 in0.0 mm
01:31 AM 73.0°F22.8°C 65.4°F18.6°C 77% 1.6 mph NNE2.6 kmh NNE 5.4 mph8.7 kmh 29.66 in1004.4 mb 0.00 in0.0 mm 0.00 in0.0 mm 0.00 in0.0 mm
01:30 AM 73.0°F22.8°C 65.4°F18.6°C 77% 1.6 mph NE2.6 kmh NE 5.4 mph8.7 kmh 29.66 in1004.4 mb 0.00 in0.0 mm 0.00 in0.0 mm 0.00 in0.0 mm
01:29 AM 73.0°F22.8°C 65.4°F18.6°C 77% 1.6 mph NE2.6 kmh NE 5.4 mph8.7 kmh 29.66 in1004.4 mb 0.00 in0.0 mm 0.00 in0.0 mm 0.00 in0.0 mm
01:28 AM 73.0°F22.8°C 65.4°F18.6°C 77% 1.6 mph NE2.6 kmh NE 5.4 mph8.7 kmh 29.66 in1004.4 mb 0.00 in0.0 mm 0.00 in0.0 mm 0.00 in0.0 mm
01:27 AM 73.0°F22.8°C 65.4°F18.6°C 77% 2.2 mph NE3.5 kmh NE 5.4 mph8.7 kmh 29.65 in1004.1 mb 0.00 in0.0 mm 0.00 in0.0 mm 0.00 in0.0 mm
01:26 AM 73.0°F22.8°C 65.4°F18.6°C 77% 2.2 mph NE3.5 kmh NE 7.6 mph12.2 kmh 29.66 in1004.4 mb 0.00 in0.0 mm 0.00 in0.0 mm 0.00 in0.0 mm
01:25 AM 73.0°F22.8°C 65.4°F18.6°C 77% 3.1 mph NE5.0 kmh NE 7.6 mph12.2 kmh 29.66 in1004.4 mb 0.00 in0.0 mm 0.00 in0.0 mm 0.00 in0.0 mm
01:24 AM 73.0°F22.8°C 65.4°F18.6°C 77% 3.1 mph NE5.0 kmh NE 7.6 mph12.2 kmh 29.65 in1004.1 mb 0.00 in0.0 mm 0.00 in0.0 mm 0.00 in0.0 mm
01:23 AM 73.0°F22.8°C 65.4°F18.6°C 77% 1.6 mph NE2.6 kmh NE 7.6 mph12.2 kmh 29.66 in1004.4 mb 0.00 in0.0 mm 0.00 in0.0 mm 0.00 in0.0 mm
01:22 AM 73.0°F22.8°C 65.4°F18.6°C 77% 2.2 mph NE3.5 kmh NE 7.6 mph12.2 kmh 29.66 in1004.4 mb 0.00 in0.0 mm 0.00 in0.0 mm 0.00 in0.0 mm
01:21 AM 73.0°F22.8°C 65.4°F18.6°C 77% 2.2 mph NE3.5 kmh NE 7.6 mph12.2 kmh 29.66 in1004.4 mb 0.00 in0.0 mm 0.00 in0.0 mm 0.00 in0.0 mm
01:20 AM 73.0°F22.8°C 65.4°F18.6°C 77% 1.6 mph NE2.6 kmh NE 7.6 mph12.2 kmh 29.66 in1004.4 mb 0.00 in0.0 mm 0.00 in0.0 mm 0.00 in0.0 mm
01:19 AM 73.2°F22.9°C 65.6°F18.7°C 77% 1.6 mph NE2.6 kmh NE 7.6 mph12.2 kmh 29.66 in1004.4 mb 0.00 in0.0 mm 0.00 in0.0 mm 0.00 in0.0 mm
01:18 AM 73.2°F22.9°C 65.6°F18.7°C 77% 2.2 mph NE3.5 kmh NE 7.6 mph12.2 kmh 29.66 in1004.4 mb 0.00 in0.0 mm 0.00 in0.0 mm 0.00 in0.0 mm
01:17 AM 73.0°F22.8°C 65.4°F18.6°C 77% 1.6 mph NE2.6 kmh NE 7.6 mph12.2 kmh 29.66 in1004.4 mb 0.00 in0.0 mm 0.00 in0.0 mm 0.00 in0.0 mm
01:16 AM 73.0°F22.8°C 65.4°F18.6°C 77% 4.5 mph NE7.2 kmh NE 7.6 mph12.2 kmh 29.66 in1004.4 mb 0.00 in0.0 mm 0.00 in0.0 mm 0.00 in0.0 mm
01:15 AM 73.0°F22.8°C 65.4°F18.6°C 77% 2.2 mph NE3.5 kmh NE 6.0 mph9.7 kmh 29.65 in1004.1 mb 0.00 in0.0 mm 0.00 in0.0 mm 0.00 in0.0 mm
01:14 AM 73.0°F22.8°C 65.4°F18.6°C 77% 3.8 mph NE6.1 kmh NE 6.0 mph9.7 kmh 29.65 in1004.1 mb 0.00 in0.0 mm 0.00 in0.0 mm 0.00 in0.0 mm
01:13 AM 73.2°F22.9°C 65.6°F18.7°C 77% 2.2 mph NE3.5 kmh NE 6.0 mph9.7 kmh 29.66 in1004.4 mb 0.00 in0.0 mm 0.00 in0.0 mm 0.00 in0.0 mm
01:12 AM 73.2°F22.9°C 65.6°F18.7°C 77% 3.1 mph NE5.0 kmh NE 6.0 mph9.7 kmh 29.65 in1004.1 mb 0.00 in0.0 mm 0.00 in0.0 mm 0.00 in0.0 mm
01:11 AM 73.2°F22.9°C 65.2°F18.4°C 76% 2.2 mph NE3.5 kmh NE 6.0 mph9.7 kmh 29.65 in1004.1 mb 0.00 in0.0 mm 0.00 in0.0 mm 0.00 in0.0 mm
01:10 AM 73.2°F22.9°C 65.2°F18.4°C 76% 2.2 mph NE3.5 kmh NE 6.0 mph9.7 kmh 29.66 in1004.4 mb 0.00 in0.0 mm 0.00 in0.0 mm 0.00 in0.0 mm
01:09 AM 73.2°F22.9°C 65.2°F18.4°C 76% 2.2 mph NE3.5 kmh NE 6.9 mph11.1 kmh 29.65 in1004.1 mb 0.00 in0.0 mm 0.00 in0.0 mm 0.00 in0.0 mm
01:08 AM 73.2°F22.9°C 65.2°F18.4°C 76% 1.6 mph NE2.6 kmh NE 6.9 mph11.1 kmh 29.65 in1004.1 mb 0.00 in0.0 mm 0.00 in0.0 mm 0.00 in0.0 mm
01:07 AM 73.2°F22.9°C 65.2°F18.4°C 76% 1.6 mph NE2.6 kmh NE 6.9 mph11.1 kmh 29.65 in1004.1 mb 0.00 in0.0 mm 0.00 in0.0 mm 0.00 in0.0 mm
01:06 AM 73.2°F22.9°C 65.2°F18.4°C 76% 3.8 mph NE6.1 kmh NE 6.9 mph11.1 kmh 29.65 in1004.1 mb 0.00 in0.0 mm 0.00 in0.0 mm 0.00 in0.0 mm
01:05 AM 73.2°F22.9°C 65.2°F18.4°C 76% 2.2 mph NE3.5 kmh NE 6.9 mph11.1 kmh 29.65 in1004.1 mb 0.00 in0.0 mm 0.00 in0.0 mm 0.00 in0.0 mm
01:04 AM 73.2°F22.9°C 65.2°F18.4°C 76% 2.2 mph NE3.5 kmh NE 6.9 mph11.1 kmh 29.65 in1004.1 mb 0.00 in0.0 mm 0.00 in0.0 mm 0.00 in0.0 mm
01:03 AM 73.4°F23.0°C 65.8°F18.8°C 77% 0.7 mph NE1.1 kmh NE 6.9 mph11.1 kmh 29.65 in1004.1 mb 0.00 in0.0 mm 0.00 in0.0 mm 0.00 in0.0 mm
01:02 AM 73.4°F23.0°C 65.4°F18.6°C 76% 3.1 mph NE5.0 kmh NE 6.9 mph11.1 kmh 29.65 in1004.1 mb 0.00 in0.0 mm 0.00 in0.0 mm 0.00 in0.0 mm
01:01 AM 73.4°F23.0°C 65.4°F18.6°C 76% 2.2 mph NE3.5 kmh NE 6.9 mph11.1 kmh 29.66 in1004.4 mb 0.00 in0.0 mm 0.00 in0.0 mm 0.00 in0.0 mm
01:00 AM 73.4°F23.0°C 65.4°F18.6°C 76% 1.6 mph NE2.6 kmh NE 6.9 mph11.1 kmh 29.66 in1004.4 mb 0.00 in0.0 mm 0.00 in0.0 mm 0.00 in0.0 mm
12:59 AM 73.4°F23.0°C 65.4°F18.6°C 76% 3.8 mph NE6.1 kmh NE 6.0 mph9.7 kmh 29.65 in1004.1 mb 0.00 in0.0 mm 0.00 in0.0 mm 0.00 in0.0 mm
12:58 AM 73.4°F23.0°C 65.4°F18.6°C 76% 2.2 mph NE3.5 kmh NE 7.6 mph12.2 kmh 29.65 in1004.1 mb 0.00 in0.0 mm 0.00 in0.0 mm 0.00 in0.0 mm
12:57 AM 73.6°F23.1°C 65.6°F18.7°C 76% 3.8 mph NE6.1 kmh NE 7.6 mph12.2 kmh 29.65 in1004.1 mb 0.00 in0.0 mm 0.00 in0.0 mm 0.00 in0.0 mm
12:56 AM 73.6°F23.1°C 65.6°F18.7°C 76% 2.2 mph NE3.5 kmh NE 7.6 mph12.2 kmh 29.65 in1004.1 mb 0.00 in0.0 mm 0.00 in0.0 mm 0.00 in0.0 mm
12:55 AM 73.6°F23.1°C 66.0°F18.9°C 77% 3.8 mph NE6.1 kmh NE 7.6 mph12.2 kmh 29.65 in1004.1 mb 0.00 in0.0 mm 0.00 in0.0 mm 0.00 in0.0 mm
12:54 AM 73.6°F23.1°C 66.0°F18.9°C 77% 3.8 mph NE6.1 kmh NE 7.6 mph12.2 kmh 29.65 in1004.1 mb 0.00 in0.0 mm 0.00 in0.0 mm 0.00 in0.0 mm
12:53 AM 73.6°F23.1°C 66.0°F18.9°C 77% 3.1 mph NNE5.0 kmh NNE 7.6 mph12.2 kmh 29.65 in1004.1 mb 0.00 in0.0 mm 0.00 in0.0 mm 0.00 in0.0 mm
12:52 AM 73.6°F23.1°C 66.0°F18.9°C 77% 3.8 mph NE6.1 kmh NE 7.6 mph12.2 kmh 29.65 in1004.1 mb 0.00 in0.0 mm 0.00 in0.0 mm 0.00 in0.0 mm
12:51 AM 73.6°F23.1°C 66.0°F18.9°C 77% 2.2 mph NE3.5 kmh NE 7.6 mph12.2 kmh 29.65 in1004.1 mb 0.00 in0.0 mm 0.00 in0.0 mm 0.00 in0.0 mm
12:50 AM 73.6°F23.1°C 66.0°F18.9°C 77% 2.2 mph NNE3.5 kmh NNE 7.6 mph12.2 kmh 29.65 in1004.1 mb 0.00 in0.0 mm 0.00 in0.0 mm 0.00 in0.0 mm
12:49 AM 73.6°F23.1°C 66.0°F18.9°C 77% 3.1 mph NNE5.0 kmh NNE 7.6 mph12.2 kmh 29.65 in1004.1 mb 0.00 in0.0 mm 0.00 in0.0 mm 0.00 in0.0 mm
12:48 AM 73.6°F23.1°C 66.0°F18.9°C 77% 6.0 mph NNE9.7 kmh NNE 7.6 mph12.2 kmh 29.65 in1004.1 mb 0.00 in0.0 mm 0.00 in0.0 mm 0.00 in0.0 mm
12:47 AM 73.8°F23.2°C 66.1°F18.9°C 77% 1.6 mph NNE2.6 kmh NNE 7.6 mph12.2 kmh 29.65 in1004.1 mb 0.00 in0.0 mm 0.00 in0.0 mm 0.00 in0.0 mm
12:46 AM 73.6°F23.1°C 66.0°F18.9°C 77% 3.1 mph NNE5.0 kmh NNE 7.6 mph12.2 kmh 29.66 in1004.4 mb 0.00 in0.0 mm 0.00 in0.0 mm 0.00 in0.0 mm
12:45 AM 73.6°F23.1°C 66.0°F18.9°C 77% 3.1 mph NNE5.0 kmh NNE 7.6 mph12.2 kmh 29.65 in1004.1 mb 0.00 in0.0 mm 0.00 in0.0 mm 0.00 in0.0 mm
12:44 AM 73.8°F23.2°C 66.1°F18.9°C 77% 2.2 mph NNE3.5 kmh NNE 7.6 mph12.2 kmh 29.65 in1004.1 mb 0.00 in0.0 mm 0.00 in0.0 mm 0.00 in0.0 mm
12:43 AM 73.6°F23.1°C 66.0°F18.9°C 77% 3.1 mph NNE5.0 kmh NNE 7.6 mph12.2 kmh 29.66 in1004.4 mb 0.00 in0.0 mm 0.00 in0.0 mm 0.00 in0.0 mm
12:42 AM 73.6°F23.1°C 66.0°F18.9°C 77% 4.5 mph NNE7.2 kmh NNE 7.6 mph12.2 kmh 29.66 in1004.4 mb 0.00 in0.0 mm 0.00 in0.0 mm 0.00 in0.0 mm
12:41 AM 73.6°F23.1°C 66.0°F18.9°C 77% 3.8 mph N6.1 kmh N 6.9 mph11.1 kmh 29.65 in1004.1 mb 0.00 in0.0 mm 0.00 in0.0 mm 0.00 in0.0 mm
12:40 AM 73.6°F23.1°C 66.0°F18.9°C 77% 3.1 mph NNE5.0 kmh NNE 7.6 mph12.2 kmh 29.65 in1004.1 mb 0.00 in0.0 mm 0.00 in0.0 mm 0.00 in0.0 mm
12:39 AM 73.6°F23.1°C 66.0°F18.9°C 77% 3.1 mph NNE5.0 kmh NNE 7.6 mph12.2 kmh 29.66 in1004.4 mb 0.00 in0.0 mm 0.00 in0.0 mm 0.00 in0.0 mm
12:38 AM 73.8°F23.2°C 66.1°F18.9°C 77% 1.6 mph NE2.6 kmh NE 7.6 mph12.2 kmh 29.65 in1004.1 mb 0.00 in0.0 mm 0.00 in0.0 mm 0.00 in0.0 mm
12:37 AM 73.8°F23.2°C 66.1°F18.9°C 77% 1.6 mph NE2.6 kmh NE 7.6 mph12.2 kmh 29.65 in1004.1 mb 0.00 in0.0 mm 0.00 in0.0 mm 0.00 in0.0 mm
12:36 AM 73.8°F23.2°C 66.1°F18.9°C 77% 3.1 mph NE5.0 kmh NE 7.6 mph12.2 kmh 29.65 in1004.1 mb 0.00 in0.0 mm 0.00 in0.0 mm 0.00 in0.0 mm
12:35 AM 73.8°F23.2°C 66.1°F18.9°C 77% 2.2 mph ENE3.5 kmh ENE 7.6 mph12.2 kmh 29.65 in1004.1 mb 0.00 in0.0 mm 0.00 in0.0 mm 0.00 in0.0 mm
12:34 AM 73.8°F23.2°C 66.1°F18.9°C 77% 2.2 mph ENE3.5 kmh ENE 7.6 mph12.2 kmh 29.65 in1004.1 mb 0.00 in0.0 mm 0.00 in0.0 mm 0.00 in0.0 mm
12:33 AM 73.8°F23.2°C 66.1°F18.9°C 77% 1.6 mph E2.6 kmh E 7.6 mph12.2 kmh 29.64 in1003.7 mb 0.00 in0.0 mm 0.00 in0.0 mm 0.00 in0.0 mm
12:32 AM 73.8°F23.2°C 66.1°F18.9°C 77% 1.6 mph E2.6 kmh E 7.6 mph12.2 kmh 29.64 in1003.7 mb 0.00 in0.0 mm 0.00 in0.0 mm 0.00 in0.0 mm
12:31 AM 73.8°F23.2°C 65.8°F18.8°C 76% 3.1 mph E5.0 kmh E 7.6 mph12.2 kmh 29.64 in1003.7 mb 0.00 in0.0 mm 0.00 in0.0 mm 0.00 in0.0 mm
12:30 AM 73.8°F23.2°C 65.8°F18.8°C 76% 2.2 mph E3.5 kmh E 8.3 mph13.4 kmh 29.65 in1004.1 mb 0.00 in0.0 mm 0.00 in0.0 mm 0.00 in0.0 mm
12:29 AM 73.8°F23.2°C 65.8°F18.8°C 76% 3.1 mph E5.0 kmh E 8.3 mph13.4 kmh 29.64 in1003.7 mb 0.00 in0.0 mm 0.00 in0.0 mm 0.00 in0.0 mm
12:28 AM 73.9°F23.3°C 65.9°F18.8°C 76% 3.1 mph E5.0 kmh E 8.3 mph13.4 kmh 29.64 in1003.7 mb 0.00 in0.0 mm 0.00 in0.0 mm 0.00 in0.0 mm
12:27 AM 73.9°F23.3°C 65.9°F18.8°C 76% 3.8 mph E6.1 kmh E 8.3 mph13.4 kmh 29.64 in1003.7 mb 0.00 in0.0 mm 0.00 in0.0 mm 0.00 in0.0 mm
12:26 AM 73.9°F23.3°C 65.9°F18.8°C 76% 3.8 mph E6.1 kmh E 9.2 mph14.8 kmh 29.64 in1003.7 mb 0.00 in0.0 mm 0.00 in0.0 mm 0.00 in0.0 mm
12:25 AM 73.9°F23.3°C 65.9°F18.8°C 76% 4.5 mph ENE7.2 kmh ENE 9.2 mph14.8 kmh 29.65 in1004.1 mb 0.00 in0.0 mm 0.00 in0.0 mm 0.00 in0.0 mm
12:24 AM 73.9°F23.3°C 65.9°F18.8°C 76% 3.8 mph ENE6.1 kmh ENE 9.2 mph14.8 kmh 29.65 in1004.1 mb 0.00 in0.0 mm 0.00 in0.0 mm 0.00 in0.0 mm
12:23 AM 73.9°F23.3°C 65.9°F18.8°C 76% 2.2 mph ENE3.5 kmh ENE 9.2 mph14.8 kmh 29.64 in1003.7 mb 0.00 in0.0 mm 0.00 in0.0 mm 0.00 in0.0 mm
12:22 AM 74.1°F23.4°C 66.1°F18.9°C 76% 4.5 mph ENE7.2 kmh ENE 9.2 mph14.8 kmh 29.64 in1003.7 mb 0.00 in0.0 mm 0.00 in0.0 mm 0.00 in0.0 mm
12:21 AM 74.1°F23.4°C 66.1°F18.9°C 76% 4.5 mph ENE7.2 kmh ENE 9.2 mph14.8 kmh 29.64 in1003.7 mb 0.00 in0.0 mm 0.00 in0.0 mm 0.00 in0.0 mm
12:20 AM 74.1°F23.4°C 66.1°F18.9°C 76% 2.2 mph ENE3.5 kmh ENE 9.2 mph14.8 kmh 29.65 in1004.1 mb 0.00 in0.0 mm 0.00 in0.0 mm 0.00 in0.0 mm
12:19 AM 74.1°F23.4°C 66.1°F18.9°C 76% 3.8 mph ENE6.1 kmh ENE 9.2 mph14.8 kmh 29.64 in1003.7 mb 0.00 in0.0 mm 0.00 in0.0 mm 0.00 in0.0 mm
12:18 AM 74.1°F23.4°C 66.1°F18.9°C 76% 4.5 mph ENE7.2 kmh ENE 9.2 mph14.8 kmh 29.65 in1004.1 mb 0.00 in0.0 mm 0.00 in0.0 mm 0.00 in0.0 mm
12:17 AM 74.1°F23.4°C 65.7°F18.7°C 75% 6.0 mph ENE9.7 kmh ENE 9.2 mph14.8 kmh 29.64 in1003.7 mb 0.00 in0.0 mm 0.00 in0.0 mm 0.00 in0.0 mm
12:16 AM 74.1°F23.4°C 65.7°F18.7°C 75% 7.6 mph ENE12.2 kmh ENE 9.2 mph14.8 kmh 29.65 in1004.1 mb 0.00 in0.0 mm 0.00 in0.0 mm 0.00 in0.0 mm
12:15 AM 74.3°F23.5°C 65.9°F18.8°C 75% 5.4 mph ENE8.7 kmh ENE 9.8 mph15.8 kmh 29.64 in1003.7 mb 0.00 in0.0 mm 0.00 in0.0 mm 0.00 in0.0 mm
12:14 AM 74.3°F23.5°C 65.9°F18.8°C 75% 3.8 mph NE6.1 kmh NE 9.8 mph15.8 kmh 29.65 in1004.1 mb 0.00 in0.0 mm 0.00 in0.0 mm 0.00 in0.0 mm
12:13 AM 74.3°F23.5°C 65.9°F18.8°C 75% 4.5 mph NE7.2 kmh NE 13.0 mph20.9 kmh 29.65 in1004.1 mb 0.00 in0.0 mm 0.00 in0.0 mm 0.00 in0.0 mm
12:12 AM 74.3°F23.5°C 65.9°F18.8°C 75% 3.8 mph ENE6.1 kmh ENE 13.0 mph20.9 kmh 29.65 in1004.1 mb 0.00 in0.0 mm 0.00 in0.0 mm 0.00 in0.0 mm
12:11 AM 74.3°F23.5°C 65.9°F18.8°C 75% 2.2 mph ENE3.5 kmh ENE 13.0 mph20.9 kmh 29.64 in1003.7 mb 0.00 in0.0 mm 0.00 in0.0 mm 0.00 in0.0 mm
12:10 AM 74.3°F23.5°C 65.9°F18.8°C 75% 5.4 mph ENE8.7 kmh ENE 13.0 mph20.9 kmh 29.64 in1003.7 mb 0.00 in0.0 mm 0.00 in0.0 mm 0.00 in0.0 mm
12:09 AM 74.3°F23.5°C 65.9°F18.8°C 75% 3.8 mph E6.1 kmh E 13.0 mph20.9 kmh 29.64 in1003.7 mb 0.00 in0.0 mm 0.00 in0.0 mm 0.00 in0.0 mm
12:08 AM 74.3°F23.5°C 65.9°F18.8°C 75% 1.6 mph E2.6 kmh E 13.0 mph20.9 kmh 29.65 in1004.1 mb 0.00 in0.0 mm 0.00 in0.0 mm 0.00 in0.0 mm
12:07 AM 74.5°F23.6°C 66.1°F18.9°C 75% 5.4 mph E8.7 kmh E 13.0 mph20.9 kmh 29.65 in1004.1 mb 0.00 in0.0 mm 0.00 in0.0 mm 0.00 in0.0 mm
12:06 AM 74.5°F23.6°C 66.1°F18.9°C 75% 6.0 mph E9.7 kmh E 13.0 mph20.9 kmh 29.64 in1003.7 mb 0.00 in0.0 mm 0.00 in0.0 mm 0.00 in0.0 mm
12:05 AM 74.5°F23.6°C 66.1°F18.9°C 75% 4.5 mph E7.2 kmh E 13.0 mph20.9 kmh 29.64 in1003.7 mb 0.00 in0.0 mm 0.00 in0.0 mm 0.00 in0.0 mm
12:04 AM 74.5°F23.6°C 66.1°F18.9°C 75% 3.8 mph E6.1 kmh E 13.0 mph20.9 kmh 29.64 in1003.7 mb 0.00 in0.0 mm 0.00 in0.0 mm 0.00 in0.0 mm
12:03 AM 74.5°F23.6°C 66.1°F18.9°C 75% 6.9 mph E11.1 kmh E 13.0 mph20.9 kmh 29.64 in1003.7 mb 0.00 in0.0 mm 0.00 in0.0 mm 0.00 in0.0 mm
12:02 AM 74.5°F23.6°C 66.1°F18.9°C 75% 2.2 mph E3.5 kmh E 12.1 mph19.5 kmh 29.64 in1003.7 mb 0.00 in0.0 mm 0.00 in0.0 mm 0.00 in0.0 mm
12:01 AM 74.5°F23.6°C 66.1°F18.9°C 75% 5.4 mph E8.7 kmh E 12.1 mph19.5 kmh 29.64 in1003.7 mb 0.00 in0.0 mm 0.00 in0.0 mm 0.00 in0.0 mm
12:00 AM 74.5°F23.6°C 66.1°F18.9°C 75% 6.0 mph E9.7 kmh E 12.1 mph19.5 kmh 29.64 in1003.7 mb 0.00 in0.0 mm 0.00 in0.0 mm 0.00 in0.0 mm